Danbury, New Hampshire
Current Conditions -  °F | °C
As of 7:15 AM on Saturday 20 Dec 2014 (Local Time) from K1P1 Reporting Station
Clear Clear  
Wind Chill: 18°   Ceiling: Unl
Heat Index: 18°   Visibility: 10mi
Dew Point: 17°   Wind: 0mph
Humidity: 98%   Direction: NA
Pressure: 30.28"   Gusts: NA
Location:  43.53°N, 71.86°W
Report Text: K1P1 201215Z AUTO 00000KT 10SM CLR M08/M08 A3028 RMK AO2 T10791081
Loading
Personal Weather Stations






























Interactive Weather Map New forecast layout! Learn more

10-Day Weather Forecast

Advertisements
Track Severe Weather on mobile